sensor_id;sensor_type;location;lat;lon;timestamp;P1;durP1;ratioP1;P2;durP2;ratioP2
1106;SDS011;540;49.448;8.612;2024-01-30T00:02:27;17.42;;;11.50;;
1106;SDS011;540;49.448;8.612;2024-01-30T00:04:55;19.30;;;11.45;;
1106;SDS011;540;49.448;8.612;2024-01-30T00:07:26;27.02;;;13.43;;
1106;SDS011;540;49.448;8.612;2024-01-30T00:09:54;30.77;;;18.20;;
1106;SDS011;540;49.448;8.612;2024-01-30T00:12:22;28.30;;;16.67;;
1106;SDS011;540;49.448;8.612;2024-01-30T00:14:49;19.45;;;12.63;;
1106;SDS011;540;49.448;8.612;2024-01-30T00:17:21;17.65;;;11.70;;
1106;SDS011;540;49.448;8.612;2024-01-30T00:19:51;18.92;;;11.23;;
1106;SDS011;540;49.448;8.612;2024-01-30T00:22:20;22.92;;;12.68;;
1106;SDS011;540;49.448;8.612;2024-01-30T00:24:48;30.38;;;14.52;;
1106;SDS011;540;49.448;8.612;2024-01-30T00:27:16;21.15;;;12.45;;
1106;SDS011;540;49.448;8.612;2024-01-30T00:29:44;16.70;;;11.15;;
1106;SDS011;540;49.448;8.612;2024-01-30T00:32:11;18.52;;;11.73;;
1106;SDS011;540;49.448;8.612;2024-01-30T00:34:41;15.73;;;10.40;;
1106;SDS011;540;49.448;8.612;2024-01-30T00:37:09;17.95;;;10.98;;
1106;SDS011;540;49.448;8.612;2024-01-30T00:39:36;17.58;;;9.30;;
1106;SDS011;540;49.448;8.612;2024-01-30T00:42:04;15.38;;;9.88;;
1106;SDS011;540;49.448;8.612;2024-01-30T00:44:34;18.90;;;11.15;;
1106;SDS011;540;49.448;8.612;2024-01-30T00:47:03;21.08;;;11.38;;
1106;SDS011;540;49.448;8.612;2024-01-30T00:49:31;21.08;;;10.30;;
1106;SDS011;540;49.448;8.612;2024-01-30T00:52:01;15.65;;;9.85;;
1106;SDS011;540;49.448;8.612;2024-01-30T00:54:29;14.70;;;8.93;;
1106;SDS011;540;49.448;8.612;2024-01-30T00:56:57;13.95;;;9.40;;
1106;SDS011;540;49.448;8.612;2024-01-30T00:59:25;13.75;;;8.48;;
1106;SDS011;540;49.448;8.612;2024-01-30T01:01:53;16.70;;;8.60;;
1106;SDS011;540;49.448;8.612;2024-01-30T01:04:21;15.35;;;9.30;;
1106;SDS011;540;49.448;8.612;2024-01-30T01:06:49;14.25;;;9.05;;
1106;SDS011;540;49.448;8.612;2024-01-30T01:09:18;14.93;;;9.75;;
1106;SDS011;540;49.448;8.612;2024-01-30T01:11:46;15.27;;;9.43;;
1106;SDS011;540;49.448;8.612;2024-01-30T01:14:14;14.52;;;8.77;;
1106;SDS011;540;49.448;8.612;2024-01-30T01:16:42;15.15;;;9.43;;
1106;SDS011;540;49.448;8.612;2024-01-30T01:19:09;12.38;;;8.52;;
1106;SDS011;540;49.448;8.612;2024-01-30T01:21:37;13.50;;;9.05;;
1106;SDS011;540;49.448;8.612;2024-01-30T01:24:05;15.95;;;8.77;;
1106;SDS011;540;49.448;8.612;2024-01-30T01:26:34;14.00;;;8.85;;
1106;SDS011;540;49.448;8.612;2024-01-30T01:29:02;14.77;;;9.07;;
1106;SDS011;540;49.448;8.612;2024-01-30T01:31:35;14.27;;;9.43;;
1106;SDS011;540;49.448;8.612;2024-01-30T01:34:09;15.57;;;9.77;;
1106;SDS011;540;49.448;8.612;2024-01-30T01:36:37;14.48;;;9.77;;
1106;SDS011;540;49.448;8.612;2024-01-30T01:39:05;13.88;;;8.65;;
1106;SDS011;540;49.448;8.612;2024-01-30T01:41:35;13.93;;;9.50;;
1106;SDS011;540;49.448;8.612;2024-01-30T01:44:03;12.23;;;8.35;;
1106;SDS011;540;49.448;8.612;2024-01-30T01:46:32;15.75;;;9.02;;
1106;SDS011;540;49.448;8.612;2024-01-30T01:49:02;11.18;;;8.32;;
1106;SDS011;540;49.448;8.612;2024-01-30T01:51:31;11.07;;;8.25;;
1106;SDS011;540;49.448;8.612;2024-01-30T01:54:02;12.60;;;8.80;;
1106;SDS011;540;49.448;8.612;2024-01-30T01:56:31;16.80;;;9.07;;
1106;SDS011;540;49.448;8.612;2024-01-30T01:59:04;16.40;;;8.60;;
1106;SDS011;540;49.448;8.612;2024-01-30T02:01:33;12.30;;;9.50;;
1106;SDS011;540;49.448;8.612;2024-01-30T02:04:01;16.17;;;9.60;;
1106;SDS011;540;49.448;8.612;2024-01-30T02:06:29;14.23;;;10.10;;
1106;SDS011;540;49.448;8.612;2024-01-30T02:08:58;14.10;;;9.63;;
1106;SDS011;540;49.448;8.612;2024-01-30T02:11:26;11.27;;;8.18;;
1106;SDS011;540;49.448;8.612;2024-01-30T02:13:54;16.65;;;10.30;;
1106;SDS011;540;49.448;8.612;2024-01-30T02:16:23;13.85;;;9.10;;
1106;SDS011;540;49.448;8.612;2024-01-30T02:18:52;15.35;;;9.27;;
1106;SDS011;540;49.448;8.612;2024-01-30T02:21:21;12.63;;;8.50;;
1106;SDS011;540;49.448;8.612;2024-01-30T02:23:49;13.27;;;8.45;;
1106;SDS011;540;49.448;8.612;2024-01-30T02:26:17;17.30;;;9.40;;
1106;SDS011;540;49.448;8.612;2024-01-30T02:28:45;14.55;;;9.23;;
1106;SDS011;540;49.448;8.612;2024-01-30T02:31:13;12.65;;;8.38;;
1106;SDS011;540;49.448;8.612;2024-01-30T02:33:41;13.23;;;9.50;;
1106;SDS011;540;49.448;8.612;2024-01-30T02:36:09;15.80;;;9.50;;
1106;SDS011;540;49.448;8.612;2024-01-30T02:38:38;13.23;;;8.77;;
1106;SDS011;540;49.448;8.612;2024-01-30T02:41:06;19.55;;;10.95;;
1106;SDS011;540;49.448;8.612;2024-01-30T02:43:34;15.85;;;10.00;;
1106;SDS011;540;49.448;8.612;2024-01-30T02:46:02;14.45;;;10.05;;
1106;SDS011;540;49.448;8.612;2024-01-30T02:48:30;24.65;;;10.98;;
1106;SDS011;540;49.448;8.612;2024-01-30T02:50:57;15.60;;;9.80;;
1106;SDS011;540;49.448;8.612;2024-01-30T02:53:25;14.50;;;10.05;;
1106;SDS011;540;49.448;8.612;2024-01-30T02:55:54;15.55;;;9.45;;
1106;SDS011;540;49.448;8.612;2024-01-30T02:58:22;14.52;;;9.45;;
1106;SDS011;540;49.448;8.612;2024-01-30T03:00:50;14.30;;;9.38;;
1106;SDS011;540;49.448;8.612;2024-01-30T03:03:18;14.13;;;8.70;;
1106;SDS011;540;49.448;8.612;2024-01-30T03:05:45;16.70;;;10.57;;
1106;SDS011;540;49.448;8.612;2024-01-30T03:08:12;14.88;;;9.43;;
1106;SDS011;540;49.448;8.612;2024-01-30T03:10:41;14.68;;;10.10;;
1106;SDS011;540;49.448;8.612;2024-01-30T03:13:10;15.73;;;10.38;;
1106;SDS011;540;49.448;8.612;2024-01-30T03:15:38;17.88;;;10.40;;
1106;SDS011;540;49.448;8.612;2024-01-30T03:18:06;18.70;;;11.13;;
1106;SDS011;540;49.448;8.612;2024-01-30T03:20:35;16.08;;;10.75;;
1106;SDS011;540;49.448;8.612;2024-01-30T03:23:02;18.15;;;11.40;;
1106;SDS011;540;49.448;8.612;2024-01-30T03:25:31;16.05;;;10.10;;
1106;SDS011;540;49.448;8.612;2024-01-30T03:27:58;16.75;;;10.55;;
1106;SDS011;540;49.448;8.612;2024-01-30T03:30:28;15.75;;;10.68;;
1106;SDS011;540;49.448;8.612;2024-01-30T03:32:55;16.10;;;10.43;;
1106;SDS011;540;49.448;8.612;2024-01-30T03:35:23;15.40;;;10.25;;
1106;SDS011;540;49.448;8.612;2024-01-30T03:37:51;14.38;;;10.80;;
1106;SDS011;540;49.448;8.612;2024-01-30T03:40:19;15.90;;;9.18;;
1106;SDS011;540;49.448;8.612;2024-01-30T03:42:47;15.98;;;9.95;;
1106;SDS011;540;49.448;8.612;2024-01-30T03:45:15;16.10;;;9.75;;
1106;SDS011;540;49.448;8.612;2024-01-30T03:47:46;17.05;;;10.02;;
1106;SDS011;540;49.448;8.612;2024-01-30T03:50:14;15.25;;;9.05;;
1106;SDS011;540;49.448;8.612;2024-01-30T03:52:42;14.27;;;9.55;;
1106;SDS011;540;49.448;8.612;2024-01-30T03:55:10;13.77;;;8.63;;
1106;SDS011;540;49.448;8.612;2024-01-30T03:57:38;11.90;;;8.70;;
1106;SDS011;540;49.448;8.612;2024-01-30T04:00:06;16.05;;;9.52;;
1106;SDS011;540;49.448;8.612;2024-01-30T04:02:35;13.95;;;8.15;;
1106;SDS011;540;49.448;8.612;2024-01-30T04:05:05;12.63;;;8.48;;
1106;SDS011;540;49.448;8.612;2024-01-30T04:07:33;13.27;;;8.88;;
1106;SDS011;540;49.448;8.612;2024-01-30T04:10:01;14.13;;;9.10;;
1106;SDS011;540;49.448;8.612;2024-01-30T04:12:31;11.73;;;8.48;;
1106;SDS011;540;49.448;8.612;2024-01-30T04:14:59;12.88;;;8.75;;
1106;SDS011;540;49.448;8.612;2024-01-30T04:17:27;15.23;;;9.02;;
1106;SDS011;540;49.448;8.612;2024-01-30T04:19:55;13.70;;;8.88;;
1106;SDS011;540;49.448;8.612;2024-01-30T04:22:24;13.52;;;8.55;;
1106;SDS011;540;49.448;8.612;2024-01-30T04:24:52;12.10;;;8.43;;
1106;SDS011;540;49.448;8.612;2024-01-30T04:27:20;13.95;;;8.85;;
1106;SDS011;540;49.448;8.612;2024-01-30T04:29:48;11.73;;;8.88;;
1106;SDS011;540;49.448;8.612;2024-01-30T04:32:16;12.38;;;8.02;;
1106;SDS011;540;49.448;8.612;2024-01-30T04:34:44;16.15;;;9.02;;
1106;SDS011;540;49.448;8.612;2024-01-30T04:37:12;14.82;;;9.18;;
1106;SDS011;540;49.448;8.612;2024-01-30T04:39:41;12.73;;;9.30;;
1106;SDS011;540;49.448;8.612;2024-01-30T04:42:09;12.98;;;9.07;;
1106;SDS011;540;49.448;8.612;2024-01-30T04:44:37;13.63;;;9.20;;
1106;SDS011;540;49.448;8.612;2024-01-30T04:47:05;13.40;;;8.93;;
1106;SDS011;540;49.448;8.612;2024-01-30T04:49:35;12.32;;;9.07;;
1106;SDS011;540;49.448;8.612;2024-01-30T04:52:03;13.90;;;8.95;;
1106;SDS011;540;49.448;8.612;2024-01-30T04:54:31;15.57;;;9.85;;
1106;SDS011;540;49.448;8.612;2024-01-30T04:57:00;18.50;;;11.45;;
1106;SDS011;540;49.448;8.612;2024-01-30T04:59:28;18.35;;;10.75;;
1106;SDS011;540;49.448;8.612;2024-01-30T05:01:56;14.73;;;10.98;;
1106;SDS011;540;49.448;8.612;2024-01-30T05:04:24;14.30;;;9.52;;
1106;SDS011;540;49.448;8.612;2024-01-30T05:06:52;16.10;;;10.93;;
1106;SDS011;540;49.448;8.612;2024-01-30T05:09:20;15.73;;;10.10;;
1106;SDS011;540;49.448;8.612;2024-01-30T05:11:48;15.10;;;10.48;;
1106;SDS011;540;49.448;8.612;2024-01-30T05:14:17;15.32;;;10.48;;
1106;SDS011;540;49.448;8.612;2024-01-30T05:16:45;18.35;;;11.65;;
1106;SDS011;540;49.448;8.612;2024-01-30T05:19:13;16.33;;;10.38;;
1106;SDS011;540;49.448;8.612;2024-01-30T05:21:41;16.90;;;10.40;;
1106;SDS011;540;49.448;8.612;2024-01-30T05:24:09;15.95;;;10.85;;
1106;SDS011;540;49.448;8.612;2024-01-30T05:26:37;16.33;;;10.98;;
1106;SDS011;540;49.448;8.612;2024-01-30T05:29:06;16.75;;;11.10;;
1106;SDS011;540;49.448;8.612;2024-01-30T05:31:35;14.10;;;10.57;;
1106;SDS011;540;49.448;8.612;2024-01-30T05:34:03;16.00;;;11.10;;
1106;SDS011;540;49.448;8.612;2024-01-30T05:36:33;13.73;;;10.00;;
1106;SDS011;540;49.448;8.612;2024-01-30T05:39:00;14.75;;;9.63;;
1106;SDS011;540;49.448;8.612;2024-01-30T05:41:32;14.77;;;10.00;;
1106;SDS011;540;49.448;8.612;2024-01-30T05:44:00;16.13;;;9.70;;
1106;SDS011;540;49.448;8.612;2024-01-30T05:46:28;13.23;;;9.30;;
1106;SDS011;540;49.448;8.612;2024-01-30T05:48:57;13.80;;;9.50;;
1106;SDS011;540;49.448;8.612;2024-01-30T05:51:25;16.80;;;9.68;;
1106;SDS011;540;49.448;8.612;2024-01-30T05:53:54;13.82;;;9.63;;
1106;SDS011;540;49.448;8.612;2024-01-30T05:56:22;15.02;;;9.88;;
1106;SDS011;540;49.448;8.612;2024-01-30T05:58:49;16.50;;;9.93;;
1106;SDS011;540;49.448;8.612;2024-01-30T06:01:17;14.07;;;9.15;;
1106;SDS011;540;49.448;8.612;2024-01-30T06:03:45;17.88;;;10.57;;
1106;SDS011;540;49.448;8.612;2024-01-30T06:06:14;13.52;;;10.25;;
1106;SDS011;540;49.448;8.612;2024-01-30T06:08:42;14.02;;;9.85;;
1106;SDS011;540;49.448;8.612;2024-01-30T06:11:10;17.25;;;10.75;;
1106;SDS011;540;49.448;8.612;2024-01-30T06:13:38;15.55;;;9.65;;
1106;SDS011;540;49.448;8.612;2024-01-30T06:16:08;16.63;;;11.35;;
1106;SDS011;540;49.448;8.612;2024-01-30T06:18:37;16.23;;;10.38;;
1106;SDS011;540;49.448;8.612;2024-01-30T06:21:05;15.02;;;9.80;;
1106;SDS011;540;49.448;8.612;2024-01-30T06:23:38;13.30;;;9.60;;
1106;SDS011;540;49.448;8.612;2024-01-30T06:26:06;14.65;;;10.48;;
1106;SDS011;540;49.448;8.612;2024-01-30T06:28:34;13.13;;;9.18;;
1106;SDS011;540;49.448;8.612;2024-01-30T06:31:02;18.50;;;10.00;;
1106;SDS011;540;49.448;8.612;2024-01-30T06:33:30;19.80;;;10.65;;
1106;SDS011;540;49.448;8.612;2024-01-30T06:35:58;17.08;;;10.93;;
1106;SDS011;540;49.448;8.612;2024-01-30T06:38:26;16.08;;;10.23;;
1106;SDS011;540;49.448;8.612;2024-01-30T06:40:55;16.35;;;10.60;;
1106;SDS011;540;49.448;8.612;2024-01-30T06:43:23;13.95;;;9.70;;
1106;SDS011;540;49.448;8.612;2024-01-30T06:45:50;13.13;;;9.30;;
1106;SDS011;540;49.448;8.612;2024-01-30T06:48:19;15.52;;;9.77;;
1106;SDS011;540;49.448;8.612;2024-01-30T06:50:46;12.13;;;9.07;;
1106;SDS011;540;49.448;8.612;2024-01-30T06:53:15;13.10;;;9.32;;
1106;SDS011;540;49.448;8.612;2024-01-30T06:55:43;15.38;;;9.60;;
1106;SDS011;540;49.448;8.612;2024-01-30T06:58:12;12.90;;;9.38;;
1106;SDS011;540;49.448;8.612;2024-01-30T07:00:40;13.48;;;9.10;;
1106;SDS011;540;49.448;8.612;2024-01-30T07:03:08;17.45;;;8.95;;
1106;SDS011;540;49.448;8.612;2024-01-30T07:05:36;15.07;;;9.65;;
1106;SDS011;540;49.448;8.612;2024-01-30T07:08:04;13.55;;;9.20;;
1106;SDS011;540;49.448;8.612;2024-01-30T07:10:32;13.68;;;9.25;;
1106;SDS011;540;49.448;8.612;2024-01-30T07:13:00;17.75;;;11.88;;
1106;SDS011;540;49.448;8.612;2024-01-30T07:15:29;14.68;;;9.23;;
1106;SDS011;540;49.448;8.612;2024-01-30T07:17:57;15.90;;;8.48;;
1106;SDS011;540;49.448;8.612;2024-01-30T07:20:25;16.52;;;8.88;;
1106;SDS011;540;49.448;8.612;2024-01-30T07:22:53;15.07;;;9.57;;
1106;SDS011;540;49.448;8.612;2024-01-30T07:25:21;15.70;;;9.38;;
1106;SDS011;540;49.448;8.612;2024-01-30T07:27:53;17.00;;;8.77;;
1106;SDS011;540;49.448;8.612;2024-01-30T07:30:21;13.40;;;8.90;;
1106;SDS011;540;49.448;8.612;2024-01-30T07:32:51;19.63;;;10.15;;
1106;SDS011;540;49.448;8.612;2024-01-30T07:35:18;16.10;;;9.68;;
1106;SDS011;540;49.448;8.612;2024-01-30T07:37:46;15.20;;;9.25;;
1106;SDS011;540;49.448;8.612;2024-01-30T07:40:14;15.20;;;9.02;;
1106;SDS011;540;49.448;8.612;2024-01-30T07:42:43;18.00;;;9.65;;
1106;SDS011;540;49.448;8.612;2024-01-30T07:45:11;16.13;;;9.25;;
1106;SDS011;540;49.448;8.612;2024-01-30T07:47:38;11.95;;;8.63;;
1106;SDS011;540;49.448;8.612;2024-01-30T07:50:08;12.30;;;8.55;;
1106;SDS011;540;49.448;8.612;2024-01-30T07:52:36;16.40;;;9.35;;
1106;SDS011;540;49.448;8.612;2024-01-30T07:55:05;15.27;;;9.23;;
1106;SDS011;540;49.448;8.612;2024-01-30T07:57:34;15.60;;;10.45;;
1106;SDS011;540;49.448;8.612;2024-01-30T08:00:02;13.88;;;9.77;;
1106;SDS011;540;49.448;8.612;2024-01-30T08:02:32;15.40;;;9.60;;
1106;SDS011;540;49.448;8.612;2024-01-30T08:04:59;14.45;;;9.60;;
1106;SDS011;540;49.448;8.612;2024-01-30T08:07:29;13.95;;;9.38;;
1106;SDS011;540;49.448;8.612;2024-01-30T08:09:57;17.58;;;9.73;;
1106;SDS011;540;49.448;8.612;2024-01-30T08:12:25;13.80;;;9.68;;
1106;SDS011;540;49.448;8.612;2024-01-30T08:14:52;18.85;;;10.23;;
1106;SDS011;540;49.448;8.612;2024-01-30T08:17:20;13.65;;;9.38;;
1106;SDS011;540;49.448;8.612;2024-01-30T08:19:48;13.25;;;9.05;;
1106;SDS011;540;49.448;8.612;2024-01-30T08:22:16;15.75;;;9.98;;
1106;SDS011;540;49.448;8.612;2024-01-30T08:24:45;12.25;;;8.93;;
1106;SDS011;540;49.448;8.612;2024-01-30T08:27:13;15.00;;;9.32;;
1106;SDS011;540;49.448;8.612;2024-01-30T08:29:41;13.73;;;9.30;;
1106;SDS011;540;49.448;8.612;2024-01-30T08:32:09;13.60;;;9.32;;
1106;SDS011;540;49.448;8.612;2024-01-30T08:34:37;11.57;;;8.48;;
1106;SDS011;540;49.448;8.612;2024-01-30T08:37:05;15.10;;;8.68;;
1106;SDS011;540;49.448;8.612;2024-01-30T08:39:33;13.55;;;8.93;;
1106;SDS011;540;49.448;8.612;2024-01-30T08:42:02;12.82;;;8.07;;
1106;SDS011;540;49.448;8.612;2024-01-30T08:44:30;12.88;;;8.32;;
1106;SDS011;540;49.448;8.612;2024-01-30T08:46:58;13.48;;;9.02;;
1106;SDS011;540;49.448;8.612;2024-01-30T08:49:26;16.70;;;10.43;;
1106;SDS011;540;49.448;8.612;2024-01-30T08:51:54;11.80;;;8.10;;
1106;SDS011;540;49.448;8.612;2024-01-30T08:54:22;16.98;;;9.18;;
1106;SDS011;540;49.448;8.612;2024-01-30T08:56:51;13.50;;;8.93;;
1106;SDS011;540;49.448;8.612;2024-01-30T08:59:21;17.02;;;10.55;;
1106;SDS011;540;49.448;8.612;2024-01-30T09:01:48;16.52;;;10.63;;
1106;SDS011;540;49.448;8.612;2024-01-30T09:04:36;13.23;;;9.88;;
1106;SDS011;540;49.448;8.612;2024-01-30T09:07:06;17.42;;;10.90;;
1106;SDS011;540;49.448;8.612;2024-01-30T09:09:37;12.85;;;8.95;;
1106;SDS011;540;49.448;8.612;2024-01-30T09:12:07;14.00;;;9.60;;
1106;SDS011;540;49.448;8.612;2024-01-30T09:14:40;15.30;;;9.50;;
1106;SDS011;540;49.448;8.612;2024-01-30T09:17:09;13.65;;;9.80;;
1106;SDS011;540;49.448;8.612;2024-01-30T09:19:40;15.00;;;9.70;;
1106;SDS011;540;49.448;8.612;2024-01-30T09:22:09;15.00;;;10.07;;
1106;SDS011;540;49.448;8.612;2024-01-30T09:24:38;19.58;;;11.40;;
1106;SDS011;540;49.448;8.612;2024-01-30T09:27:08;14.98;;;9.88;;
1106;SDS011;540;49.448;8.612;2024-01-30T09:29:36;12.55;;;9.23;;
1106;SDS011;540;49.448;8.612;2024-01-30T09:32:07;13.75;;;9.00;;
1106;SDS011;540;49.448;8.612;2024-01-30T09:34:39;13.73;;;8.75;;
1106;SDS011;540;49.448;8.612;2024-01-30T09:37:07;12.18;;;9.02;;
1106;SDS011;540;49.448;8.612;2024-01-30T09:39:35;13.05;;;9.82;;
1106;SDS011;540;49.448;8.612;2024-01-30T09:42:05;14.65;;;9.55;;
1106;SDS011;540;49.448;8.612;2024-01-30T09:44:38;15.23;;;9.00;;
1106;SDS011;540;49.448;8.612;2024-01-30T09:47:12;14.48;;;9.18;;
1106;SDS011;540;49.448;8.612;2024-01-30T09:49:41;14.23;;;8.82;;
1106;SDS011;540;49.448;8.612;2024-01-30T09:52:11;14.32;;;9.43;;
1106;SDS011;540;49.448;8.612;2024-01-30T09:54:39;12.20;;;8.88;;
1106;SDS011;540;49.448;8.612;2024-01-30T09:57:08;13.38;;;8.82;;
1106;SDS011;540;49.448;8.612;2024-01-30T09:59:36;16.42;;;9.50;;
1106;SDS011;540;49.448;8.612;2024-01-30T10:02:04;14.30;;;9.13;;
1106;SDS011;540;49.448;8.612;2024-01-30T10:04:34;14.32;;;8.98;;
1106;SDS011;540;49.448;8.612;2024-01-30T10:07:02;14.63;;;9.07;;
1106;SDS011;540;49.448;8.612;2024-01-30T10:09:31;12.43;;;8.93;;
1106;SDS011;540;49.448;8.612;2024-01-30T10:12:01;13.32;;;9.32;;
1106;SDS011;540;49.448;8.612;2024-01-30T10:14:30;14.80;;;9.35;;
1106;SDS011;540;49.448;8.612;2024-01-30T10:16:58;14.90;;;8.82;;
1106;SDS011;540;49.448;8.612;2024-01-30T10:19:26;13.63;;;9.20;;
1106;SDS011;540;49.448;8.612;2024-01-30T10:21:55;18.33;;;8.93;;
1106;SDS011;540;49.448;8.612;2024-01-30T10:24:24;12.80;;;8.63;;
1106;SDS011;540;49.448;8.612;2024-01-30T10:26:52;11.85;;;8.27;;
1106;SDS011;540;49.448;8.612;2024-01-30T10:29:20;13.80;;;8.93;;
1106;SDS011;540;49.448;8.612;2024-01-30T10:31:57;14.18;;;8.85;;
1106;SDS011;540;49.448;8.612;2024-01-30T10:34:25;16.40;;;9.25;;
1106;SDS011;540;49.448;8.612;2024-01-30T10:36:59;14.02;;;9.15;;
1106;SDS011;540;49.448;8.612;2024-01-30T10:39:35;17.27;;;8.70;;
1106;SDS011;540;49.448;8.612;2024-01-30T10:42:06;16.70;;;10.07;;
1106;SDS011;540;49.448;8.612;2024-01-30T10:44:43;12.13;;;8.27;;
1106;SDS011;540;49.448;8.612;2024-01-30T10:47:17;12.73;;;8.52;;
1106;SDS011;540;49.448;8.612;2024-01-30T10:49:50;11.95;;;8.15;;
1106;SDS011;540;49.448;8.612;2024-01-30T10:52:21;15.63;;;9.75;;
1106;SDS011;540;49.448;8.612;2024-01-30T10:54:51;14.40;;;9.27;;
1106;SDS011;540;49.448;8.612;2024-01-30T10:57:21;13.38;;;8.30;;
1106;SDS011;540;49.448;8.612;2024-01-30T10:59:51;11.50;;;8.90;;
1106;SDS011;540;49.448;8.612;2024-01-30T11:02:20;15.00;;;9.50;;
1106;SDS011;540;49.448;8.612;2024-01-30T11:04:50;16.77;;;10.77;;
1106;SDS011;540;49.448;8.612;2024-01-30T11:07:25;15.32;;;9.70;;
1106;SDS011;540;49.448;8.612;2024-01-30T11:09:59;13.82;;;8.27;;
1106;SDS011;540;49.448;8.612;2024-01-30T11:12:29;14.07;;;8.07;;
1106;SDS011;540;49.448;8.612;2024-01-30T11:15:02;12.65;;;8.95;;
1106;SDS011;540;49.448;8.612;2024-01-30T11:17:44;16.02;;;10.73;;
1106;SDS011;540;49.448;8.612;2024-01-30T11:20:14;11.07;;;7.68;;
1106;SDS011;540;49.448;8.612;2024-01-30T11:22:46;12.55;;;8.95;;
1106;SDS011;540;49.448;8.612;2024-01-30T11:25:14;14.15;;;8.65;;
1106;SDS011;540;49.448;8.612;2024-01-30T11:27:43;14.65;;;8.35;;
1106;SDS011;540;49.448;8.612;2024-01-30T11:30:20;11.73;;;7.75;;
1106;SDS011;540;49.448;8.612;2024-01-30T11:32:59;13.02;;;7.78;;
1106;SDS011;540;49.448;8.612;2024-01-30T11:35:29;11.77;;;7.95;;
1106;SDS011;540;49.448;8.612;2024-01-30T11:38:00;13.57;;;8.10;;
1106;SDS011;540;49.448;8.612;2024-01-30T11:40:30;12.60;;;7.28;;
1106;SDS011;540;49.448;8.612;2024-01-30T11:43:00;11.27;;;7.40;;
1106;SDS011;540;49.448;8.612;2024-01-30T11:45:28;12.98;;;7.65;;
1106;SDS011;540;49.448;8.612;2024-01-30T11:47:57;13.60;;;9.00;;
1106;SDS011;540;49.448;8.612;2024-01-30T11:50:27;13.40;;;7.95;;
1106;SDS011;540;49.448;8.612;2024-01-30T11:52:55;11.52;;;7.50;;
1106;SDS011;540;49.448;8.612;2024-01-30T11:55:25;13.65;;;8.55;;
1106;SDS011;540;49.448;8.612;2024-01-30T11:57:59;16.67;;;8.73;;
1106;SDS011;540;49.448;8.612;2024-01-30T12:00:27;15.50;;;8.98;;
1106;SDS011;540;49.448;8.612;2024-01-30T12:02:57;12.45;;;8.27;;
1106;SDS011;540;49.448;8.612;2024-01-30T12:05:27;14.23;;;8.07;;
1106;SDS011;540;49.448;8.612;2024-01-30T12:07:56;13.98;;;7.97;;
1106;SDS011;540;49.448;8.612;2024-01-30T12:10:28;14.23;;;8.40;;
1106;SDS011;540;49.448;8.612;2024-01-30T12:12:56;16.25;;;8.15;;
1106;SDS011;540;49.448;8.612;2024-01-30T12:15:25;12.43;;;8.68;;
1106;SDS011;540;49.448;8.612;2024-01-30T12:18:03;19.67;;;9.15;;
1106;SDS011;540;49.448;8.612;2024-01-30T12:20:32;15.00;;;9.65;;
1106;SDS011;540;49.448;8.612;2024-01-30T12:23:00;16.20;;;8.75;;
1106;SDS011;540;49.448;8.612;2024-01-30T12:25:30;14.45;;;8.25;;
1106;SDS011;540;49.448;8.612;2024-01-30T12:27:58;13.23;;;8.23;;
1106;SDS011;540;49.448;8.612;2024-01-30T12:30:27;14.85;;;8.95;;
1106;SDS011;540;49.448;8.612;2024-01-30T12:32:56;17.13;;;8.85;;
1106;SDS011;540;49.448;8.612;2024-01-30T12:35:24;12.88;;;8.85;;
1106;SDS011;540;49.448;8.612;2024-01-30T12:37:56;14.77;;;8.90;;
1106;SDS011;540;49.448;8.612;2024-01-30T12:40:24;16.27;;;8.98;;
1106;SDS011;540;49.448;8.612;2024-01-30T12:42:54;17.58;;;9.57;;
1106;SDS011;540;49.448;8.612;2024-01-30T12:45:22;18.52;;;8.57;;
1106;SDS011;540;49.448;8.612;2024-01-30T12:47:49;14.85;;;8.43;;
1106;SDS011;540;49.448;8.612;2024-01-30T12:50:18;17.08;;;8.80;;
1106;SDS011;540;49.448;8.612;2024-01-30T12:52:46;13.80;;;8.05;;
1106;SDS011;540;49.448;8.612;2024-01-30T12:55:15;11.65;;;8.50;;
1106;SDS011;540;49.448;8.612;2024-01-30T12:57:44;12.90;;;8.32;;
1106;SDS011;540;49.448;8.612;2024-01-30T13:00:13;18.90;;;8.27;;
1106;SDS011;540;49.448;8.612;2024-01-30T13:02:43;13.20;;;8.25;;
1106;SDS011;540;49.448;8.612;2024-01-30T13:05:11;16.27;;;8.48;;
1106;SDS011;540;49.448;8.612;2024-01-30T13:07:40;18.45;;;8.73;;
1106;SDS011;540;49.448;8.612;2024-01-30T13:10:08;13.40;;;8.50;;
1106;SDS011;540;49.448;8.612;2024-01-30T13:12:35;14.18;;;8.35;;
1106;SDS011;540;49.448;8.612;2024-01-30T13:15:05;15.48;;;8.23;;
1106;SDS011;540;49.448;8.612;2024-01-30T13:17:35;13.00;;;8.15;;
1106;SDS011;540;49.448;8.612;2024-01-30T13:20:03;16.52;;;7.90;;
1106;SDS011;540;49.448;8.612;2024-01-30T13:22:37;15.43;;;8.00;;
1106;SDS011;540;49.448;8.612;2024-01-30T13:25:06;14.65;;;7.93;;
1106;SDS011;540;49.448;8.612;2024-01-30T13:27:35;14.05;;;7.68;;
1106;SDS011;540;49.448;8.612;2024-01-30T13:30:03;12.70;;;7.38;;
1106;SDS011;540;49.448;8.612;2024-01-30T13:32:32;14.30;;;8.18;;
1106;SDS011;540;49.448;8.612;2024-01-30T13:35:01;12.98;;;8.43;;
1106;SDS011;540;49.448;8.612;2024-01-30T13:37:29;15.68;;;7.65;;
1106;SDS011;540;49.448;8.612;2024-01-30T13:39:57;13.18;;;8.48;;
1106;SDS011;540;49.448;8.612;2024-01-30T13:42:29;11.43;;;7.60;;
1106;SDS011;540;49.448;8.612;2024-01-30T13:44:57;12.60;;;8.40;;
1106;SDS011;540;49.448;8.612;2024-01-30T13:47:24;20.83;;;8.80;;
1106;SDS011;540;49.448;8.612;2024-01-30T13:49:52;23.83;;;8.88;;
1106;SDS011;540;49.448;8.612;2024-01-30T13:52:22;15.15;;;8.35;;
1106;SDS011;540;49.448;8.612;2024-01-30T13:54:57;14.63;;;7.38;;
1106;SDS011;540;49.448;8.612;2024-01-30T13:57:25;18.63;;;8.18;;
1106;SDS011;540;49.448;8.612;2024-01-30T13:59:53;10.73;;;7.15;;
1106;SDS011;540;49.448;8.612;2024-01-30T14:02:21;16.02;;;8.45;;
1106;SDS011;540;49.448;8.612;2024-01-30T14:04:49;14.98;;;8.30;;
1106;SDS011;540;49.448;8.612;2024-01-30T14:07:17;14.25;;;7.97;;
1106;SDS011;540;49.448;8.612;2024-01-30T14:09:47;20.02;;;10.40;;
1106;SDS011;540;49.448;8.612;2024-01-30T14:12:15;14.55;;;8.65;;
1106;SDS011;540;49.448;8.612;2024-01-30T14:14:43;13.20;;;8.27;;
1106;SDS011;540;49.448;8.612;2024-01-30T14:17:11;12.70;;;7.90;;
1106;SDS011;540;49.448;8.612;2024-01-30T14:19:39;13.88;;;8.32;;
1106;SDS011;540;49.448;8.612;2024-01-30T14:22:07;12.27;;;7.80;;
1106;SDS011;540;49.448;8.612;2024-01-30T14:24:35;15.43;;;7.63;;
1106;SDS011;540;49.448;8.612;2024-01-30T14:27:04;15.00;;;8.30;;
1106;SDS011;540;49.448;8.612;2024-01-30T14:29:34;14.35;;;7.38;;
1106;SDS011;540;49.448;8.612;2024-01-30T14:32:02;13.07;;;8.13;;
1106;SDS011;540;49.448;8.612;2024-01-30T14:34:30;19.30;;;8.02;;
1106;SDS011;540;49.448;8.612;2024-01-30T14:36:58;12.55;;;7.88;;
1106;SDS011;540;49.448;8.612;2024-01-30T14:39:26;11.95;;;7.40;;
1106;SDS011;540;49.448;8.612;2024-01-30T14:41:54;14.40;;;7.75;;
1106;SDS011;540;49.448;8.612;2024-01-30T14:44:24;10.57;;;7.15;;
1106;SDS011;540;49.448;8.612;2024-01-30T14:46:52;12.90;;;7.47;;
1106;SDS011;540;49.448;8.612;2024-01-30T14:49:21;13.82;;;7.43;;
1106;SDS011;540;49.448;8.612;2024-01-30T14:51:49;15.80;;;7.97;;
1106;SDS011;540;49.448;8.612;2024-01-30T14:54:17;12.27;;;8.23;;
1106;SDS011;540;49.448;8.612;2024-01-30T14:56:45;16.02;;;8.70;;
1106;SDS011;540;49.448;8.612;2024-01-30T14:59:13;17.10;;;8.70;;
1106;SDS011;540;49.448;8.612;2024-01-30T15:01:42;12.25;;;7.78;;
1106;SDS011;540;49.448;8.612;2024-01-30T15:04:11;14.80;;;7.88;;
1106;SDS011;540;49.448;8.612;2024-01-30T15:06:39;13.38;;;7.75;;
1106;SDS011;540;49.448;8.612;2024-01-30T15:09:11;14.68;;;8.00;;
1106;SDS011;540;49.448;8.612;2024-01-30T15:11:40;11.70;;;7.55;;
1106;SDS011;540;49.448;8.612;2024-01-30T15:14:08;15.07;;;7.28;;
1106;SDS011;540;49.448;8.612;2024-01-30T15:16:37;13.23;;;6.97;;
1106;SDS011;540;49.448;8.612;2024-01-30T15:19:06;17.40;;;8.65;;
1106;SDS011;540;49.448;8.612;2024-01-30T15:21:35;11.40;;;7.03;;
1106;SDS011;540;49.448;8.612;2024-01-30T15:24:03;11.43;;;6.82;;